サー・シウサガル・ラングラーム国際空港の過去48時間の天気

サー・シウサガル・ラングラーム国際空港 (Plaisance Mauritius )

現在時刻: 9/16 19:11 +04 (9/16 15:11 UTC) 以下の時間は現地時間です。

過去48時間のMETAR気象情報
時間 風向 風速(m/s) 視程 気温(℃) 湿度(%) 気圧(hPa) 天気現象
16 19:00 南東 2 10km以上 23 73 1018
16 18:00 東南東 2 10km以上 24 74 1017
16 17:00 東南東 3 10km以上 24 74 1017
16 16:00 東南東 3 10km以上 25 65 1017
16 15:00 東南東 4 10km以上 26 61 1017
16 14:00 3 10km以上 26 61 1017
16 13:00 南南東 3 10km以上 26 61 1017
16 12:00 南東 4 10km以上 25 61 1018
16 11:00 3 10km以上 26 61 1019
16 10:00 東南東 4 10km以上 25 65 1019
16 09:00 2 10km以上 24 74 1019
16 08:00 静穏 0 10km以上 21 88 1019
16 07:00 北西 2 10km以上 18 94 1019 周辺でしゅう雨
16 06:00 北西 3 10km以上 19 94 1018 周辺でしゅう雨
16 05:00 北西 2 10km以上 18 94 1018
16 04:00 北西 3 10km以上 18 94 1018
16 03:00 北北西 3 10km以上 19 83 1019
16 02:00 北北西 3 10km以上 18 94 1019
16 01:00 北西 2 10km以上 19 88 1019
16 00:00 北西 2 10km以上 19 88 1020
15 23:00 北北西 3 10km以上 20 88 1020
15 22:00 北西 2 10km以上 21 83 1021
15 21:00 北北西 2 10km以上 21 83 1020
15 20:00 北北東 3 10km以上 22 78 1020
15 19:00 3 10km以上 23 78 1020
15 18:00 2 10km以上 24 69 1019
15 17:00 3 10km以上 24 69 1019
15 16:00 南東 4 10km以上 25 65 1019
15 15:00 東南東 4 10km以上 25 69 1019
15 14:00 南東 4 10km以上 25 69 1019
15 13:00 東南東 4 10km以上 26 61 1019
15 12:00 東南東 4 10km以上 25 65 1020
15 11:00 東南東 4 10km以上 25 65 1021
15 10:00 北東 3 10km以上 24 74 1021
15 09:00 2 10km以上 22 83 1021 周辺でしゅう雨
15 08:00 北西 2 10km以上 21 88 1021
15 07:00 北西 2 10km以上 20 88 1020
15 06:00 北西 2 10km以上 20 88 1020
15 05:00 北西 3 10km以上 20 88 1020
15 04:00 北北西 2 10km以上 20 88 1019
15 03:00 北西 2 10km以上 20 94 1019
15 02:00 北西 3 10km以上 21 83 1020
15 01:00 2 10km以上 20 88 1021
15 00:00 東北東 4 10km以上 20 88 1021
14 23:00 北北西 3 10km以上 20 83 1021
14 22:00 2 10km以上 21 83 1022
14 21:00 東北東 2 10km以上 21 83 1022
14 20:00 東北東 3 10km以上 21 83 1021
FIMP 161500Z 13003KT 9999 SCT018 SCT050 23/18 Q1018
FIMP 161400Z 12003KT 9999 SCT018 24/19 Q1017
FIMP 161300Z 12005KT 9999 SCT018 24/19 Q1017
FIMP 161200Z 11006KT 9999 SCT018 25/18 Q1017
FIMP 161100Z 12007KT 9999 FEW018 26/18 Q1017
FIMP 161000Z 17005KT 9999 FEW019 26/18 Q1017
FIMP 160900Z 15006KT 9999 FEW019 26/18 Q1017
FIMP 160800Z 14007KT 9999 FEW020 25/17 Q1018
FIMP 160700Z 10006KT 9999 SCT020 26/18 Q1019
FIMP 160600Z 12007KT 9999 SCT019 25/18 Q1019
FIMP 160500Z 10004KT 9999 SCT018 24/19 Q1019
FIMP 160400Z 00000KT 9999 FEW016 21/19 Q1019
FIMP 160300Z 32004KT 9999 VCSH SCT016 18/17 Q1019
FIMP 160200Z 32005KT 9999 VCSH BKN017 19/18 Q1018
FIMP 160100Z 32004KT 9999 FEW018 18/17 Q1018
FIMP 160000Z 32005KT 9999 FEW018 18/17 Q1018
FIMP 152300Z 33006KT 9999 FEW018 19/16 Q1019
FIMP 152200Z 33006KT 9999 FEW018 18/17 Q1019
FIMP 152100Z 32003KT 9999 FEW018 19/17 Q1019
FIMP 152000Z 32003KT 9999 FEW018 19/17 Q1020
FIMP 151900Z 33005KT 9999 FEW018 20/18 Q1020
FIMP 151800Z 31003KT 9999 SCT017 BKN050 21/18 Q1021
FIMP 151700Z 34004KT 9999 FEW018 21/18 Q1020
FIMP 151600Z 02005KT 9999 FEW017 22/18 Q1020
FIMP 151500Z 10006KT 9999 FEW017 23/19 Q1020
FIMP 151400Z 09004KT 9999 FEW016 SCT050 24/18 Q1019
FIMP 151300Z 08006KT 9999 SCT016 24/18 Q1019
FIMP 151200Z 13007KT 9999 SCT016 25/18 Q1019
FIMP 151100Z 12007KT 9999 SCT016 25/19 Q1019
FIMP 151000Z 13008KT 9999 SCT016 25/19 Q1019
FIMP 150900Z 12008KT 9999 FEW016 SCT050 26/18 Q1019
FIMP 150800Z 11008KT 9999 FEW016 SCT050 25/18 Q1020
FIMP 150700Z 11008KT 9999 SCT016 SCT050 25/18 Q1021
FIMP 150600Z 05006KT 9999 FEW016 BKN050 24/19 Q1021
FIMP 150500Z 35004KT 9999 VCSH SCT015 BKN050 22/19 Q1021
FIMP 150400Z 32003KT 9999 FEW016 BKN050 21/19 Q1021
FIMP 150300Z 32004KT 9999 FEW016 BKN050 20/18 Q1020
FIMP 150200Z 32004KT 9999 FEW017 BKN050 20/18 Q1020
FIMP 150100Z 32006KT 9999 FEW017 BKN050 20/18 Q1020
FIMP 150000Z 34004KT 9999 FEW017 BKN050 20/18 Q1019
FIMP 142300Z 32004KT 9999 FEW017 BKN050 20/19 Q1019
FIMP 142200Z 32006KT 9999 FEW017 BKN050 21/18 Q1020
FIMP 142100Z 09003KT 9999 FEW017 BKN050 20/18 Q1021
FIMP 142000Z 07008KT 9999 FEW017 SCT050 20/18 Q1021
FIMP 141900Z 34005KT 9999 SCT017 20/17 Q1021
FIMP 141800Z 35003KT 9999 SCT017 21/18 Q1022
FIMP 141700Z 06004KT 9999 SCT017 21/18 Q1022
FIMP 141600Z 07005KT 9999 SCT017 21/18 Q1021